Terminal Aerodrome Forecast
Issued by NWS

Home | Current Version | Previous Version | Text Only | Print | Product List | Glossary On
Versions: 1 2 3 4 5 6 7 8 9 10 11 12 13 14 15 16 17 18 19 20 21 22 23 24
000
FTUS46 KSEW 192300
TAFSEA
TAF
KSEA 192331Z 2000/2106 19009KT P6SM SCT035 BKN050 BKN250
     FM200100 17009KT P6SM SCT045 OVC100
     FM200300 16009KT P6SM OVC045
     FM200700 14010KT P6SM -RA SCT025 OVC045
     FM201600 15012KT P6SM -RA OVC025
     FM201900 16015G23KT 4SM -RA BR OVC025=

USA.gov is the U.S. government's official web portal to all federal, state and local government web resources and services.